Time;durP1;ratioP1;P1;durP2;ratioP2;P2;SDS_P1;SDS_P2;PMS_P1;PMS_P2;Temp;Humidity;BMP_temperature;BMP_pressure;BME280_temperature;BME280_humidity;BME280_pressure;Samples;Min_cycle;Max_cycle;Signal;HPM_P1;HPM_P2
2023/03/24 00:02:12;;;;;;;10.15;4.15;;;11.20;99.90;;;;;;5065652;28;20747;-89
2023/03/24 00:04:41;;;;;;;11.65;4.35;;;11.20;99.90;;;;;;5067039;28;20076;-89
2023/03/24 00:07:13;;;;;;;12.27;4.22;;;11.30;99.90;;;;;;5065574;28;21295;-90
2023/03/24 00:09:40;;;;;;;12.10;4.05;;;11.30;99.90;;;;;;5051318;28;20040;-88
2023/03/24 00:12:08;;;;;;;10.88;3.92;;;11.20;99.90;;;;;;5048681;28;20041;-90
2023/03/24 00:14:34;;;;;;;11.82;4.40;;;11.20;99.90;;;;;;5068008;28;20048;-89
2023/03/24 00:17:01;;;;;;;13.05;4.28;;;;;;;;;;5030771;28;20084;-89
2023/03/24 00:19:26;;;;;;;10.45;3.70;;;11.20;99.90;;;;;;5047891;28;20456;-87
2023/03/24 00:21:54;;;;;;;12.30;4.47;;;11.20;99.90;;;;;;5010355;28;20032;-87
2023/03/24 00:24:20;;;;;;;13.75;4.32;;;11.20;99.90;;;;;;5049515;28;20112;-88
2023/03/24 00:26:47;;;;;;;11.93;4.18;;;11.20;99.90;;;;;;5051472;28;20158;-88
2023/03/24 00:29:13;;;;;;;11.57;4.20;;;11.20;99.90;;;;;;5044702;28;20117;-88
2023/03/24 00:31:39;;;;;;;10.00;3.97;;;11.20;99.90;;;;;;5032718;28;20035;-88
2023/03/24 00:34:07;;;;;;;11.43;4.45;;;11.20;99.90;;;;;;5034441;28;20033;-88
2023/03/24 00:36:34;;;;;;;10.70;4.07;;;11.20;99.90;;;;;;5050560;28;20093;-87
2023/03/24 00:39:00;;;;;;;11.55;4.50;;;11.20;99.90;;;;;;5049818;28;20040;-88
2023/03/24 00:41:26;;;;;;;11.05;4.47;;;11.20;99.90;;;;;;5032255;28;20041;-88
2023/03/24 00:43:55;;;;;;;13.48;4.28;;;11.20;99.90;;;;;;5030984;28;20040;-88
2023/03/24 00:46:27;;;;;;;13.07;4.10;;;11.20;99.90;;;;;;5065885;28;20430;-88
2023/03/24 00:49:04;;;;;;;10.88;4.05;;;11.20;99.90;;;;;;5047719;28;20405;-89
2023/03/24 00:51:36;;;;;;;11.70;4.55;;;11.20;99.90;;;;;;5063446;28;20032;-89
2023/03/24 00:54:02;;;;;;;13.32;4.40;;;11.20;99.90;;;;;;5065592;28;20044;-89
2023/03/24 00:56:31;;;;;;;12.55;4.32;;;11.20;99.90;;;;;;5065073;28;20045;-89
2023/03/24 00:58:57;;;;;;;10.00;3.80;;;11.10;99.90;;;;;;5050200;28;20041;-88
2023/03/24 01:01:28;;;;;;;12.10;4.38;;;11.20;99.90;;;;;;5065269;28;20051;-88
2023/03/24 01:03:55;;;;;;;14.57;4.88;;;11.10;99.90;;;;;;5046836;28;20041;-87
2023/03/24 01:06:23;;;;;;;13.07;4.43;;;11.10;99.90;;;;;;5066481;28;20032;-88
2023/03/24 01:08:52;;;;;;;12.52;4.40;;;11.10;99.90;;;;;;5082251;28;20044;-88
2023/03/24 01:11:24;;;;;;;9.88;3.72;;;11.10;99.90;;;;;;5047230;28;20109;-88
2023/03/24 01:13:52;;;;;;;9.43;3.97;;;11.10;99.90;;;;;;5065098;28;20178;-89
2023/03/24 01:16:17;;;;;;;8.90;3.88;;;11.10;99.90;;;;;;5065345;28;20041;-88
2023/03/24 01:18:44;;;;;;;9.43;3.65;;;11.10;99.90;;;;;;5048402;28;20024;-89
2023/03/24 01:21:11;;;;;;;10.00;3.90;;;11.10;99.90;;;;;;5066448;28;20158;-88
2023/03/24 01:23:38;;;;;;;10.43;3.65;;;11.10;99.90;;;;;;5064445;28;20473;-89
2023/03/24 01:26:06;;;;;;;10.13;3.83;;;11.10;99.90;;;;;;5031859;28;20048;-87
2023/03/24 01:28:32;;;;;;;9.73;3.67;;;11.10;99.90;;;;;;5064656;28;20041;-88
2023/03/24 01:30:58;;;;;;;11.60;3.47;;;11.10;99.90;;;;;;5048876;28;20040;-87
2023/03/24 01:33:24;;;;;;;8.80;3.60;;;11.20;99.90;;;;;;5031843;28;20033;-87
2023/03/24 01:35:50;;;;;;;11.05;3.50;;;11.10;99.90;;;;;;5016647;28;20499;-87
2023/03/24 01:38:16;;;;;;;11.15;3.80;;;11.10;99.90;;;;;;5034566;28;20036;-87
2023/03/24 01:40:44;;;;;;;9.20;3.63;;;11.10;99.90;;;;;;5065761;28;20115;-88
2023/03/24 01:43:29;;;;;;;11.15;3.80;;;11.10;99.90;;;;;;5064923;28;20489;-91
2023/03/24 01:46:19;;;;;;;12.00;3.70;;;11.20;99.90;;;;;;5046497;28;20049;-90
2023/03/24 01:48:58;;;;;;;9.77;3.42;;;11.20;99.90;;;;;;5046481;28;20270;-88
2023/03/24 01:51:36;;;;;;;11.82;3.78;;;11.20;99.90;;;;;;5049363;28;20113;-87
2023/03/24 01:54:10;;;;;;;9.23;3.50;;;11.20;99.90;;;;;;5063471;28;20055;-88
2023/03/24 01:56:44;;;;;;;10.43;3.75;;;11.10;99.90;;;;;;5048555;28;20253;-88
2023/03/24 01:59:15;;;;;;;10.15;3.75;;;11.20;99.90;;;;;;5064556;28;20190;-89
2023/03/24 02:01:41;;;;;;;9.70;3.40;;;11.10;99.90;;;;;;5047369;28;20048;-89
2023/03/24 02:04:08;;;;;;;9.02;3.60;;;11.10;99.90;;;;;;5030577;28;20075;-87
2023/03/24 02:06:39;;;;;;;10.45;3.88;;;11.20;99.90;;;;;;5046479;28;21330;-88
2023/03/24 02:09:07;;;;;;;8.45;3.65;;;11.20;99.90;;;;;;5048192;28;20075;-88
2023/03/24 02:11:34;;;;;;;9.57;3.20;;;11.20;99.90;;;;;;5061168;28;20044;-88
2023/03/24 02:14:02;;;;;;;8.32;3.17;;;11.20;99.90;;;;;;5064487;28;20091;-89
2023/03/24 02:16:52;;;;;;;8.07;3.20;;;11.20;99.90;;;;;;5045024;28;20397;-89
2023/03/24 02:19:39;;;;;;;9.98;3.47;;;11.20;99.90;;;;;;5063693;28;20044;-88
2023/03/24 02:22:08;;;;;;;10.70;3.25;;;11.20;99.90;;;;;;5047442;28;20277;-89
2023/03/24 02:24:55;;;;;;;8.55;3.30;;;11.20;99.90;;;;;;5065717;28;20033;-88
2023/03/24 02:27:46;;;;;;;8.68;3.35;;;11.20;99.90;;;;;;5063670;28;20041;-89
2023/03/24 02:30:40;;;;;;;10.18;3.63;;;11.20;99.90;;;;;;5045551;28;20044;-89
2023/03/24 02:33:08;;;;;;;10.57;3.25;;;11.20;99.90;;;;;;5059189;28;20041;-87
2023/03/24 02:35:46;;;;;;;10.23;3.72;;;11.20;99.90;;;;;;5062584;28;20037;-88
2023/03/24 02:38:12;;;;;;;9.27;3.42;;;11.30;99.90;;;;;;5062007;28;20033;-88
2023/03/24 02:41:00;;;;;;;10.45;3.55;;;11.20;99.90;;;;;;5061459;28;20529;-89
2023/03/24 02:43:37;;;;;;;10.27;3.58;;;11.20;99.90;;;;;;5055229;28;20494;-88
2023/03/24 02:46:21;;;;;;;9.93;3.58;;;11.20;99.90;;;;;;5047366;28;20058;-89
2023/03/24 02:49:15;;;;;;;8.95;3.80;;;11.20;99.90;;;;;;5047555;28;20043;-90
2023/03/24 02:51:43;;;;;;;9.18;3.53;;;11.30;99.90;;;;;;5046188;28;20033;-88
2023/03/24 02:54:20;;;;;;;8.60;3.17;;;11.20;99.90;;;;;;5063847;28;20162;-89
2023/03/24 02:56:57;;;;;;;8.82;3.60;;;11.30;99.90;;;;;;5064113;28;20037;-88
2023/03/24 02:59:49;;;;;;;10.07;3.35;;;11.20;99.90;;;;;;5052230;28;20048;-89
2023/03/24 03:02:29;;;;;;;8.55;3.47;;;11.30;99.90;;;;;;5045331;28;20052;-89
2023/03/24 03:05:08;;;;;;;9.45;3.45;;;11.20;99.90;;;;;;5066339;28;20115;-90
2023/03/24 03:07:40;;;;;;;10.18;3.80;;;11.30;99.90;;;;;;5064572;28;20512;-90
2023/03/24 03:10:20;;;;;;;9.80;3.65;;;11.30;99.90;;;;;;5047946;28;20133;-90
2023/03/24 03:12:50;;;;;;;9.65;3.47;;;11.30;99.90;;;;;;5047038;28;20330;-91
2023/03/24 03:15:20;;;;;;;9.95;3.63;;;11.30;99.90;;;;;;5044600;28;20032;-89
2023/03/24 03:18:03;;;;;;;8.25;3.25;;;11.30;99.90;;;;;;5047419;28;20285;-89
2023/03/24 03:20:33;;;;;;;8.30;3.50;;;11.30;99.90;;;;;;5062656;28;20039;-90
2023/03/24 03:23:13;;;;;;;8.98;3.50;;;11.30;99.90;;;;;;5044303;28;20059;-91
2023/03/24 03:25:49;;;;;;;7.90;3.20;;;11.30;99.90;;;;;;5065462;28;20124;-90
2023/03/24 03:28:20;;;;;;;10.20;3.53;;;11.40;99.90;;;;;;5063711;28;20040;-89
2023/03/24 03:30:52;;;;;;;11.23;3.80;;;11.30;99.90;;;;;;5062862;28;20111;-89
2023/03/24 03:33:24;;;;;;;8.90;3.10;;;11.40;99.90;;;;;;5043916;28;20136;-91
2023/03/24 03:36:19;;;;;;;8.38;3.30;;;11.40;99.90;;;;;;5045704;28;20032;-89
2023/03/24 03:38:46;;;;;;;8.45;3.00;;;11.40;99.90;;;;;;5064348;28;20277;-91
2023/03/24 03:41:13;;;;;;;7.90;2.55;;;11.30;99.90;;;;;;5062890;28;20028;-90
2023/03/24 03:43:39;;;;;;;8.30;2.50;;;11.30;99.90;;;;;;5046543;28;20512;-90
2023/03/24 03:46:06;;;;;;;7.45;2.60;;;11.30;99.90;;;;;;5027526;28;20040;-89
2023/03/24 03:48:33;;;;;;;8.23;2.75;;;11.30;99.90;;;;;;5030870;28;20147;-90
2023/03/24 03:50:59;;;;;;;7.78;2.65;;;11.30;99.90;;;;;;5063069;28;20406;-90
2023/03/24 03:53:37;;;;;;;8.13;2.53;;;11.30;99.90;;;;;;5048235;28;20183;-91
2023/03/24 03:56:03;;;;;;;10.90;2.60;;;11.20;99.90;;;;;;5045618;28;20050;-90
2023/03/24 03:58:29;;;;;;;8.15;2.53;;;12.70;99.90;;;;;;5063537;28;20324;-90
2023/03/24 04:00:55;;;;;;;7.68;2.90;;;11.20;99.90;;;;;;5045619;28;20116;-90
2023/03/24 04:03:48;;;;;;;8.20;2.33;;;11.10;99.90;;;;;;5033388;28;20363;-90
2023/03/24 04:06:25;;;;;;;7.13;2.65;;;11.10;99.90;;;;;;5062156;28;20053;-88
2023/03/24 04:09:07;;;;;;;9.07;2.60;;;11.00;99.90;;;;;;5061942;28;20058;-89
2023/03/24 04:12:01;;;;;;;7.78;2.55;;;10.90;99.90;;;;;;5047039;28;20046;-89
2023/03/24 04:14:36;;;;;;;8.88;2.63;;;10.90;99.90;;;;;;5018778;28;20711;-89
2023/03/24 04:17:05;;;;;;;7.85;2.50;;;10.80;99.90;;;;;;5053708;28;20389;-90
2023/03/24 04:20:01;;;;;;;9.25;2.90;;;10.80;99.90;;;;;;5063565;28;20033;-90
2023/03/24 04:23:08;;;;;;;9.23;2.28;;;10.80;99.90;;;;;;5061781;28;20032;-89
2023/03/24 04:25:36;;;;;;;8.60;2.50;;;10.70;99.90;;;;;;5047407;28;20036;-89
2023/03/24 04:28:25;;;;;;;9.68;2.30;;;10.70;99.90;;;;;;5059955;28;20044;-88
2023/03/24 04:31:06;;;;;;;11.10;2.50;;;10.70;99.90;;;;;;5044477;28;20072;-89
2023/03/24 04:33:57;;;;;;;8.15;1.75;;;10.60;99.90;;;;;;5060294;28;20043;-88
2023/03/24 04:36:42;;;;;;;9.50;2.30;;;10.50;99.90;;;;;;5063403;28;20155;-89
2023/03/24 04:39:15;;;;;;;9.50;2.20;;;10.50;99.90;;;;;;5064276;28;20037;-88
2023/03/24 04:41:43;;;;;;;8.88;1.95;;;10.40;99.90;;;;;;5043496;28;20115;-88
2023/03/24 04:44:11;;;;;;;10.60;2.10;;;10.40;99.90;;;;;;5059183;28;20097;-88
2023/03/24 04:46:38;;;;;;;10.10;2.13;;;10.30;99.90;;;;;;5050576;28;20052;-88
2023/03/24 04:49:04;;;;;;;12.30;2.58;;;10.20;99.90;;;;;;5050427;28;20047;-88
2023/03/24 04:51:30;;;;;;;7.88;2.05;;;10.20;99.90;;;;;;5066046;28;20040;-88
2023/03/24 04:53:56;;;;;;;9.40;1.88;;;10.20;99.90;;;;;;5035166;28;20047;-88
2023/03/24 04:56:28;;;;;;;11.32;2.15;;;10.10;99.90;;;;;;5016666;28;20028;-88
2023/03/24 04:58:54;;;;;;;9.68;2.20;;;9.60;99.90;;;;;;5067201;28;20037;-90
2023/03/24 05:01:20;;;;;;;10.95;2.25;;;10.00;99.90;;;;;;5033807;28;20055;-89
2023/03/24 05:03:46;;;;;;;13.35;2.53;;;10.00;99.90;;;;;;5009305;28;20037;-89
2023/03/24 05:06:12;;;;;;;8.82;2.20;;;9.90;99.90;;;;;;5048232;28;20417;-89
2023/03/24 05:08:39;;;;;;;10.80;2.35;;;9.90;99.90;;;;;;5047260;28;20045;-87
2023/03/24 05:11:05;;;;;;;11.02;2.10;;;9.80;99.90;;;;;;5065046;28;20458;-88
2023/03/24 05:13:31;;;;;;;11.65;2.17;;;9.80;99.90;;;;;;5033412;28;20458;-88
2023/03/24 05:15:57;;;;;;;8.95;2.30;;;9.70;99.90;;;;;;5031510;28;20112;-89
2023/03/24 05:18:23;;;;;;;11.80;2.60;;;9.70;99.90;;;;;;5049726;28;20128;-90
2023/03/24 05:20:49;;;;;;;12.35;2.72;;;9.70;99.90;;;;;;5050024;28;20032;-89
2023/03/24 05:23:15;;;;;;;13.30;2.35;;;9.70;99.90;;;;;;5047749;28;20489;-88
2023/03/24 05:25:41;;;;;;;11.45;2.42;;;9.60;99.90;;;;;;5062495;28;20032;-88
2023/03/24 05:28:07;;;;;;;12.23;2.72;;;9.60;99.90;;;;;;5050131;28;20067;-88
2023/03/24 05:30:33;;;;;;;10.45;2.65;;;9.60;99.90;;;;;;5050596;28;20656;-89
2023/03/24 05:32:59;;;;;;;9.75;2.70;;;9.60;99.90;;;;;;5048934;28;20040;-88
2023/03/24 05:35:25;;;;;;;16.20;3.47;;;9.60;99.90;;;;;;5031447;28;20044;-90
2023/03/24 05:37:51;;;;;;;10.00;2.47;;;9.60;99.90;;;;;;5066138;28;20093;-89
2023/03/24 05:40:17;;;;;;;14.55;3.20;;;9.60;99.90;;;;;;5065724;28;20489;-88
2023/03/24 05:42:43;;;;;;;13.20;3.45;;;9.60;99.90;;;;;;5047401;28;20337;-88
2023/03/24 05:45:10;;;;;;;12.23;2.50;;;9.60;99.90;;;;;;5029807;28;20087;-89
2023/03/24 05:47:36;;;;;;;13.70;2.90;;;9.60;99.90;;;;;;5063723;28;20079;-87
2023/03/24 05:50:02;;;;;;;13.07;2.58;;;9.60;99.90;;;;;;5062025;28;20083;-88
2023/03/24 05:52:27;;;;;;;13.95;2.92;;;9.70;99.90;;;;;;5064875;28;20485;-88
2023/03/24 05:54:53;;;;;;;14.27;3.05;;;9.70;99.90;;;;;;5028156;28;20044;-86
2023/03/24 05:57:20;;;;;;;15.13;3.33;;;9.70;99.90;;;;;;5044647;28;20946;-88
2023/03/24 05:59:45;;;;;;;12.52;2.85;;;9.70;99.90;;;;;;5081097;28;20635;-90
2023/03/24 06:02:11;;;;;;;13.57;3.45;;;9.70;99.90;;;;;;5009646;28;20171;-89
2023/03/24 06:04:37;;;;;;;12.60;3.03;;;9.70;99.90;;;;;;5025456;28;20029;-89
2023/03/24 06:07:03;;;;;;;14.20;3.45;;;9.80;99.90;;;;;;5050652;28;20036;-88
2023/03/24 06:09:36;;;;;;;15.98;2.90;;;9.80;99.90;;;;;;5051853;28;20463;-88
2023/03/24 06:12:03;;;;;;;11.93;2.88;;;9.80;99.90;;;;;;5052420;28;20048;-88
2023/03/24 06:14:29;;;;;;;14.90;3.15;;;9.80;99.90;;;;;;5067785;28;20060;-90
2023/03/24 06:16:58;;;;;;;14.75;3.05;;;9.80;99.90;;;;;;5035918;28;20071;-88
2023/03/24 06:19:25;;;;;;;11.98;3.35;;;9.80;99.90;;;;;;5058077;28;20119;-90
2023/03/24 06:21:52;;;;;;;13.13;2.90;;;9.80;99.90;;;;;;5057551;28;20044;-90
2023/03/24 06:24:18;;;;;;;12.50;2.83;;;9.80;99.90;;;;;;5057192;28;20036;-89
2023/03/24 06:26:48;;;;;;;14.30;2.80;;;9.90;99.90;;;;;;5035679;28;20047;-90
2023/03/24 06:29:16;;;;;;;16.25;3.63;;;9.80;99.90;;;;;;5066636;28;20032;-90
2023/03/24 06:31:43;;;;;;;13.77;3.25;;;9.90;99.90;;;;;;5036869;28;20525;-89
2023/03/24 06:34:09;;;;;;;12.70;2.80;;;9.80;99.90;;;;;;5023267;28;20386;-89
2023/03/24 06:36:34;;;;;;;14.75;3.17;;;9.80;99.90;;;;;;5039193;28;20037;-89
2023/03/24 06:39:01;;;;;;;15.27;3.05;;;9.80;99.90;;;;;;5060061;28;20040;-90
2023/03/24 06:41:27;;;;;;;14.75;3.00;;;;;;;;;;5053323;28;20041;-90
2023/03/24 06:43:53;;;;;;;17.10;3.40;;;9.80;99.90;;;;;;5037433;28;20504;-89
2023/03/24 06:46:18;;;;;;;14.30;3.08;;;9.80;99.90;;;;;;5050903;28;20075;-89
2023/03/24 06:48:45;;;;;;;13.32;3.35;;;9.80;99.90;;;;;;5046425;28;20064;-89
2023/03/24 06:51:11;;;;;;;14.48;3.47;;;9.80;99.90;;;;;;5022738;28;20045;-89
2023/03/24 06:53:39;;;;;;;16.60;3.70;;;9.80;99.90;;;;;;5054767;28;20045;-89
2023/03/24 06:56:06;;;;;;;13.70;3.20;;;9.90;99.90;;;;;;5049073;28;20108;-89
2023/03/24 06:58:33;;;;;;;15.82;2.97;;;9.90;99.90;;;;;;5050836;28;20047;-91
2023/03/24 07:01:01;;;;;;;13.45;2.90;;;9.90;99.90;;;;;;5056094;28;20060;-91
2023/03/24 07:03:27;;;;;;;13.10;3.20;;;9.90;99.90;;;;;;5050002;28;20052;-89
2023/03/24 07:05:54;;;;;;;14.38;2.85;;;9.10;99.90;;;;;;5045189;28;20054;-90
2023/03/24 07:08:20;;;;;;;16.13;3.08;;;9.90;99.90;;;;;;5041264;28;20043;-89
2023/03/24 07:10:46;;;;;;;12.05;3.10;;;9.90;99.90;;;;;;5036479;28;20032;-89
2023/03/24 07:13:12;;;;;;;15.85;2.80;;;10.00;99.90;;;;;;5022107;28;20036;-89
2023/03/24 07:15:37;;;;;;;16.45;3.55;;;10.00;99.90;;;;;;5038235;28;20040;-89
2023/03/24 07:18:03;;;;;;;13.30;2.97;;;10.00;99.90;;;;;;5048299;28;20115;-88
2023/03/24 07:20:29;;;;;;;20.67;3.65;;;10.00;99.90;;;;;;5042303;28;20116;-90
2023/03/24 07:22:56;;;;;;;13.35;3.20;;;10.00;99.90;;;;;;5031218;28;20538;-92
2023/03/24 07:25:22;;;;;;;14.25;3.13;;;9.90;99.90;;;;;;5036348;28;20086;-89
2023/03/24 07:27:52;;;;;;;16.10;3.25;;;10.00;99.90;;;;;;5069767;28;20043;-90
2023/03/24 07:30:18;;;;;;;12.90;2.90;;;;;;;;;;5064585;28;20485;-90
2023/03/24 07:32:43;;;;;;;18.30;3.50;;;10.00;99.90;;;;;;5075449;28;20059;-90
2023/03/24 07:35:11;;;;;;;16.48;3.78;;;10.00;99.90;;;;;;5036435;28;20500;-87
2023/03/24 07:37:37;;;;;;;14.57;3.28;;;10.10;99.90;;;;;;5069325;28;20040;-90
2023/03/24 07:40:05;;;;;;;13.60;3.17;;;10.00;99.90;;;;;;5032756;28;20647;-89
2023/03/24 07:42:31;;;;;;;14.88;3.40;;;10.10;99.90;;;;;;5045731;28;20037;-90
2023/03/24 07:44:57;;;;;;;16.75;3.10;;;10.10;99.90;;;;;;5049326;28;20036;-88
2023/03/24 07:47:23;;;;;;;16.25;2.78;;;10.10;99.90;;;;;;5061181;28;20051;-89
2023/03/24 07:49:49;;;;;;;17.65;3.55;;;10.10;99.90;;;;;;5055469;28;20067;-88
2023/03/24 07:52:15;;;;;;;18.60;4.10;;;10.10;99.90;;;;;;5031871;28;20128;-89
2023/03/24 07:54:40;;;;;;;17.23;4.22;;;10.20;99.90;;;;;;5019919;28;20080;-88
2023/03/24 07:57:06;;;;;;;17.55;3.40;;;10.20;99.90;;;;;;5050617;28;20408;-90
2023/03/24 07:59:33;;;;;;;18.42;3.58;;;10.10;99.90;;;;;;5052955;28;20075;-90
2023/03/24 08:01:59;;;;;;;18.90;3.70;;;10.20;99.90;;;;;;5047384;28;20150;-88
2023/03/24 08:04:27;;;;;;;15.57;3.58;;;10.20;99.90;;;;;;5047132;28;20041;-87
2023/03/24 08:06:53;;;;;;;16.92;3.85;;;10.20;99.90;;;;;;5062150;28;20032;-89
2023/03/24 08:09:20;;;;;;;16.48;3.70;;;10.20;99.90;;;;;;5063142;28;20079;-89
2023/03/24 08:11:46;;;;;;;17.08;3.67;;;10.30;99.90;;;;;;5052350;28;20059;-89
2023/03/24 08:14:12;;;;;;;17.75;3.75;;;10.30;99.90;;;;;;5040045;28;20040;-89
2023/03/24 08:16:37;;;;;;;17.30;4.10;;;10.30;99.90;;;;;;5038312;28;20048;-89
2023/03/24 08:19:03;;;;;;;18.98;3.97;;;10.40;99.90;;;;;;5039946;28;20028;-89
2023/03/24 08:21:29;;;;;;;17.48;3.30;;;10.40;99.90;;;;;;5041525;28;20036;-89
2023/03/24 08:23:55;;;;;;;16.13;3.83;;;10.50;99.90;;;;;;5057518;28;20068;-89
2023/03/24 08:26:25;;;;;;;17.77;3.20;;;10.50;99.90;;;;;;5043375;28;20044;-89
2023/03/24 08:28:51;;;;;;;14.80;3.53;;;10.60;99.90;;;;;;5071866;28;20119;-90
2023/03/24 08:31:17;;;;;;;17.42;3.72;;;10.70;99.90;;;;;;5050635;28;20040;-89
2023/03/24 08:33:42;;;;;;;20.17;3.85;;;10.70;99.90;;;;;;5072312;28;20040;-89
2023/03/24 08:36:08;;;;;;;16.17;3.25;;;10.70;99.90;;;;;;5056410;28;20040;-88
2023/03/24 08:38:37;;;;;;;22.02;3.53;;;10.90;99.90;;;;;;5060093;28;20116;-89
2023/03/24 08:41:05;;;;;;;20.38;3.92;;;11.00;99.90;;;;;;5055739;28;20044;-89
2023/03/24 08:43:32;;;;;;;20.98;3.95;;;11.10;99.90;;;;;;5038585;28;20028;-90
2023/03/24 08:46:00;;;;;;;20.52;4.00;;;11.30;99.90;;;;;;5054907;28;20045;-90
2023/03/24 08:48:28;;;;;;;21.52;4.30;;;11.50;99.90;;;;;;5052268;28;20041;-89
2023/03/24 08:50:54;;;;;;;22.88;4.25;;;11.50;99.90;;;;;;5072848;28;20102;-90
2023/03/24 08:53:20;;;;;;;18.27;3.65;;;11.50;99.90;;;;;;5056642;28;20040;-89
2023/03/24 08:55:46;;;;;;;18.67;4.15;;;11.60;99.90;;;;;;5055137;28;20498;-89
2023/03/24 08:58:17;;;;;;;19.52;3.92;;;11.70;99.90;;;;;;5044741;28;20064;-88
2023/03/24 09:00:45;;;;;;;17.45;3.75;;;11.70;99.90;;;;;;5055350;28;20178;-89
2023/03/24 09:03:20;;;;;;;19.13;3.92;;;11.90;99.90;;;;;;5038855;28;20040;-88
2023/03/24 09:05:47;;;;;;;16.30;3.65;;;12.10;99.90;;;;;;5055621;28;20100;-88
2023/03/24 09:08:15;;;;;;;24.52;5.03;;;12.20;99.90;;;;;;5054955;28;20448;-89
2023/03/24 09:10:42;;;;;;;15.85;3.50;;;12.30;99.90;;;;;;5068565;28;20040;-88
2023/03/24 09:13:07;;;;;;;15.32;3.78;;;12.50;99.90;;;;;;5058423;28;20033;-88
2023/03/24 09:15:33;;;;;;;17.83;3.75;;;12.60;99.90;;;;;;5038088;28;20037;-89
2023/03/24 09:17:59;;;;;;;15.85;4.32;;;12.70;99.90;;;;;;5063030;28;20162;-89
2023/03/24 09:20:26;;;;;;;16.60;3.85;;;12.70;99.90;;;;;;5072648;28;20051;-88
2023/03/24 09:22:52;;;;;;;18.90;3.70;;;12.70;99.90;;;;;;5056972;28;20611;-90
2023/03/24 09:25:19;;;;;;;17.23;3.70;;;12.60;99.90;;;;;;5075022;28;20123;-88
2023/03/24 09:27:45;;;;;;;18.60;4.10;;;12.50;99.90;;;;;;5071819;28;20037;-89
2023/03/24 09:30:13;;;;;;;16.63;3.38;;;12.30;99.90;;;;;;5030769;28;20106;-89
2023/03/24 09:32:39;;;;;;;14.50;3.50;;;12.10;99.90;;;;;;5069200;28;20322;-88
2023/03/24 09:35:07;;;;;;;16.20;3.55;;;11.90;99.90;;;;;;5038304;28;20120;-89
2023/03/24 09:37:34;;;;;;;18.35;4.05;;;11.80;99.90;;;;;;5072983;28;20036;-89
2023/03/24 09:40:01;;;;;;;15.88;3.10;;;11.60;99.90;;;;;;5072285;28;20044;-89
2023/03/24 09:42:36;;;;;;;17.02;3.15;;;11.40;99.90;;;;;;5054636;28;20117;-89
2023/03/24 09:45:17;;;;;;;16.75;3.30;;;11.30;99.90;;;;;;5070468;28;20201;-91
2023/03/24 09:47:53;;;;;;;16.60;3.72;;;11.10;99.90;;;;;;5070686;28;20040;-89
2023/03/24 09:50:26;;;;;;;19.17;3.60;;;11.10;99.90;;;;;;5053908;28;20076;-90
2023/03/24 09:53:20;;;;;;;16.88;2.97;;;11.10;99.90;;;;;;5053927;28;20048;-89
2023/03/24 09:55:48;;;;;;;12.55;2.78;;;11.20;99.90;;;;;;5067511;28;20036;-89
2023/03/24 09:58:14;;;;;;;14.48;3.60;;;;;;;;;;5050578;28;20532;-88
2023/03/24 10:00:41;;;;;;;17.00;3.55;;;11.70;99.90;;;;;;5068403;28;20055;-89
2023/03/24 10:03:20;;;;;;;17.48;3.63;;;11.70;99.90;;;;;;5053262;28;20075;-89
2023/03/24 10:06:06;;;;;;;14.05;3.83;;;11.90;99.90;;;;;;5068016;28;20048;-89
2023/03/24 10:08:36;;;;;;;15.80;3.63;;;12.20;99.90;;;;;;5069133;28;20120;-89
2023/03/24 10:11:20;;;;;;;17.42;3.78;;;12.40;99.90;;;;;;5051861;28;20051;-89
2023/03/24 10:14:10;;;;;;;15.38;3.80;;;12.50;99.90;;;;;;5071373;28;20036;-89
2023/03/24 10:16:54;;;;;;;15.82;3.38;;;12.60;99.90;;;;;;5068108;28;20063;-89
2023/03/24 10:19:42;;;;;;;14.23;3.13;;;12.60;99.90;;;;;;5087233;28;20040;-90
2023/03/24 10:22:26;;;;;;;16.77;3.70;;;12.80;99.90;;;;;;5069414;28;20052;-89
2023/03/24 10:25:37;;;;;;;18.45;3.88;;;12.90;99.90;;;;;;5069136;28;20054;-89
2023/03/24 10:28:16;;;;;;;16.40;3.05;;;12.90;99.90;;;;;;5019782;28;20060;-90
2023/03/24 10:30:43;;;;;;;15.85;3.58;;;13.10;99.90;;;;;;5066135;28;20037;-90
2023/03/24 10:33:12;;;;;;;15.15;3.70;;;13.20;99.90;;;;;;5036930;28;20045;-89
2023/03/24 10:36:08;;;;;;;14.52;3.30;;;13.20;99.90;;;;;;5038631;28;20125;-87
2023/03/24 10:38:34;;;;;;;14.73;3.08;;;13.30;99.90;;;;;;5055569;28;20092;-89
2023/03/24 10:41:01;;;;;;;15.55;3.50;;;13.30;99.90;;;;;;5053972;28;20111;-90
2023/03/24 10:43:28;;;;;;;15.15;3.03;;;13.30;99.90;;;;;;5053242;28;20041;-90
2023/03/24 10:45:56;;;;;;;15.23;3.20;;;13.40;99.90;;;;;;5052810;28;20524;-90
2023/03/24 10:48:43;;;;;;;17.23;3.63;;;13.50;99.90;;;;;;5053103;28;20108;-89
2023/03/24 10:51:15;;;;;;;13.82;2.90;;;13.60;99.90;;;;;;5058990;28;20044;-89
2023/03/24 10:53:42;;;;;;;14.65;3.15;;;13.70;99.90;;;;;;5076179;28;20080;-89
2023/03/24 10:56:16;;;;;;;13.85;3.13;;;13.80;99.90;;;;;;5054681;28;20156;-90
2023/03/24 10:58:43;;;;;;;12.07;2.75;;;13.90;99.90;;;;;;5052319;28;20036;-90
2023/03/24 11:01:30;;;;;;;15.90;3.10;;;13.80;99.90;;;;;;5038522;28;20052;-90
2023/03/24 11:04:02;;;;;;;14.98;3.15;;;13.80;99.90;;;;;;5051316;28;20099;-89
2023/03/24 11:06:28;;;;;;;14.77;3.15;;;13.80;99.90;;;;;;5046976;28;20329;-89
2023/03/24 11:09:37;;;;;;;15.88;3.40;;;13.80;99.90;;;;;;5048736;28;20282;-89
2023/03/24 11:12:03;;;;;;;14.48;2.95;;;13.90;99.90;;;;;;5008074;28;20049;-89
2023/03/24 11:14:29;;;;;;;15.77;3.22;;;13.90;99.90;;;;;;5039762;28;20151;-91
2023/03/24 11:17:13;;;;;;;14.13;3.17;;;13.90;99.90;;;;;;5047876;28;20037;-90
2023/03/24 11:19:49;;;;;;;13.98;3.20;;;13.90;99.90;;;;;;5066032;28;20116;-88
2023/03/24 11:22:14;;;;;;;17.35;3.10;;;13.90;99.90;;;;;;5054612;28;20044;-89
2023/03/24 11:24:40;;;;;;;11.73;2.70;;;13.90;99.90;;;;;;5069795;28;20029;-89
2023/03/24 11:27:13;;;;;;;24.65;3.75;;;14.00;99.90;;;;;;5052693;28;20473;-88
2023/03/24 11:29:40;;;;;;;14.55;2.88;;;13.80;99.90;;;;;;5069602;28;20071;-90
2023/03/24 11:32:23;;;;;;;13.77;3.22;;;13.90;99.90;;;;;;5049941;28;20110;-89
2023/03/24 11:34:56;;;;;;;13.88;3.20;;;13.90;99.90;;;;;;5047752;28;20047;-88
2023/03/24 11:37:29;;;;;;;14.50;3.00;;;13.90;99.90;;;;;;5059078;28;20050;-90
2023/03/24 11:40:15;;;;;;;14.77;3.15;;;14.00;99.90;;;;;;5057402;28;20091;-89
2023/03/24 11:42:50;;;;;;;13.07;2.72;;;14.10;99.90;;;;;;5053775;28;20044;-89
2023/03/24 11:45:19;;;;;;;14.57;3.10;;;14.00;99.90;;;;;;5068049;28;20037;-90
2023/03/24 11:47:46;;;;;;;14.88;3.47;;;13.80;99.90;;;;;;5061893;28;20055;-88
2023/03/24 11:50:18;;;;;;;14.05;3.30;;;13.60;99.90;;;;;;5038040;28;20053;-88
2023/03/24 11:52:47;;;;;;;15.45;3.20;;;13.60;99.90;;;;;;5061934;28;20044;-90
2023/03/24 11:55:23;;;;;;;15.25;2.97;;;13.60;99.90;;;;;;5040598;28;20093;-89
2023/03/24 11:57:58;;;;;;;13.30;3.05;;;13.70;99.90;;;;;;5067552;28;20033;-89
2023/03/24 12:00:40;;;;;;;13.95;2.78;;;13.80;99.90;;;;;;5067129;28;20044;-89
2023/03/24 12:03:31;;;;;;;12.23;2.85;;;13.80;99.90;;;;;;5066487;28;20060;-90
2023/03/24 12:06:41;;;;;;;11.70;2.75;;;13.80;99.90;;;;;;5053837;28;20044;-89
2023/03/24 12:09:16;;;;;;;12.27;2.85;;;13.90;99.90;;;;;;5060561;28;20386;-90
2023/03/24 12:12:00;;;;;;;14.73;3.13;;;13.90;99.90;;;;;;5058645;28;20068;-90
2023/03/24 12:14:38;;;;;;;12.23;2.70;;;14.00;99.90;;;;;;5069716;28;20044;-88
2023/03/24 12:17:23;;;;;;;14.43;2.83;;;14.10;99.90;;;;;;5069193;28;20049;-89
2023/03/24 12:20:04;;;;;;;14.93;3.30;;;14.10;99.90;;;;;;5070179;28;20113;-90
2023/03/24 12:22:56;;;;;;;10.48;2.30;;;14.10;99.90;;;;;;5052452;28;20040;-89
2023/03/24 12:25:48;;;;;;;16.88;3.15;;;14.10;99.90;;;;;;5074379;28;20082;-89
2023/03/24 12:28:44;;;;;;;15.13;2.80;;;14.10;99.90;;;;;;5070601;28;20041;-89
2023/03/24 12:31:25;;;;;;;13.65;3.20;;;14.20;99.90;;;;;;5057433;28;20039;-89
2023/03/24 12:34:12;;;;;;;13.95;2.80;;;14.30;99.90;;;;;;5072054;28;20642;-90
2023/03/24 12:36:57;;;;;;;13.45;2.58;;;14.40;99.90;;;;;;5055968;28;20048;-89
2023/03/24 12:39:31;;;;;;;11.73;2.67;;;14.40;99.90;;;;;;5051136;28;20047;-89
2023/03/24 12:42:03;;;;;;;13.50;2.85;;;14.30;99.90;;;;;;5060113;28;20473;-89
2023/03/24 12:45:03;;;;;;;12.50;2.78;;;14.20;99.90;;;;;;5040930;28;20428;-89
2023/03/24 12:47:34;;;;;;;12.88;2.65;;;14.20;99.90;;;;;;5064440;28;20032;-89
2023/03/24 12:50:16;;;;;;;16.10;2.88;;;14.10;99.90;;;;;;5051918;28;20070;-89
2023/03/24 12:52:48;;;;;;;12.48;2.72;;;14.00;99.90;;;;;;5049235;28;20040;-89
2023/03/24 12:55:29;;;;;;;13.13;2.85;;;14.00;99.90;;;;;;5051251;28;20045;-89
2023/03/24 12:58:24;;;;;;;13.90;2.80;;;13.90;99.90;;;;;;5057471;28;20029;-88
2023/03/24 13:01:19;;;;;;;15.65;3.17;;;13.70;99.90;;;;;;4977633;28;20054;-89
2023/03/24 13:03:47;;;;;;;12.90;2.72;;;13.80;99.90;;;;;;5066106;28;20044;-91
2023/03/24 13:06:57;;;;;;;10.90;2.70;;;14.00;99.90;;;;;;5070943;28;20045;-90
2023/03/24 13:09:39;;;;;;;13.93;2.90;;;14.00;99.90;;;;;;5071570;28;20047;-90